createdAt,value
2023-04-06T00:02:03.329Z,19.77
2023-04-06T00:04:31.348Z,21.77
2023-04-06T00:06:59.450Z,20.90
2023-04-06T00:09:27.181Z,21.47
2023-04-06T00:11:54.977Z,21.57
2023-04-06T00:14:22.625Z,23.87
2023-04-06T00:16:50.352Z,22.43
2023-04-06T00:19:17.714Z,21.53
2023-04-06T00:21:45.828Z,22.77
2023-04-06T00:24:13.033Z,21.93
2023-04-06T00:26:40.785Z,22.10
2023-04-06T00:29:08.846Z,22.20
2023-04-06T00:31:36.947Z,20.20
2023-04-06T00:34:04.761Z,19.53
2023-04-06T00:36:32.807Z,19.03
2023-04-06T00:39:00.720Z,16.70
2023-04-06T00:41:29.024Z,17.10
2023-04-06T00:43:56.761Z,16.57
2023-04-06T00:46:24.758Z,15.27
2023-04-06T00:48:52.717Z,14.53
2023-04-06T00:51:21.221Z,13.73
2023-04-06T00:53:48.853Z,14.27
2023-04-06T00:56:17.137Z,14.33
2023-04-06T00:58:54.164Z,13.23
2023-04-06T01:01:26.907Z,13.63
2023-04-06T01:03:58.237Z,15.13
2023-04-06T01:06:26.394Z,17.27
2023-04-06T01:08:59.647Z,12.43
2023-04-06T01:11:28.873Z,14.33
2023-04-06T01:13:57.347Z,13.63
2023-04-06T01:16:28.864Z,13.07
2023-04-06T01:19:10.624Z,12.67
2023-04-06T01:21:41.443Z,13.53
2023-04-06T01:24:29.391Z,13.67
2023-04-06T01:27:30.989Z,13.40
2023-04-06T01:30:14.097Z,13.77
2023-04-06T01:32:47.731Z,13.27
2023-04-06T01:35:20.549Z,11.90
2023-04-06T01:37:59.544Z,12.57
2023-04-06T01:40:32.122Z,13.07
2023-04-06T01:43:00.585Z,13.87
2023-04-06T01:45:47.506Z,12.17
2023-04-06T01:48:20.705Z,13.13
2023-04-06T01:50:48.843Z,12.27
2023-04-06T01:53:21.900Z,13.27
2023-04-06T01:55:49.805Z,13.53
2023-04-06T01:58:31.615Z,12.43
2023-04-06T02:00:59.970Z,12.63
2023-04-06T02:03:32.724Z,14.20
2023-04-06T02:06:07.945Z,13.27
2023-04-06T02:08:40.660Z,13.27
2023-04-06T02:11:08.521Z,14.87
2023-04-06T02:13:42.689Z,14.17
2023-04-06T02:16:11.714Z,14.00
2023-04-06T02:18:39.822Z,13.70
2023-04-06T02:21:07.564Z,13.03
2023-04-06T02:23:35.438Z,13.60
2023-04-06T02:26:03.025Z,13.67
2023-04-06T02:28:31.139Z,13.27
2023-04-06T02:30:58.831Z,13.63
2023-04-06T02:33:28.953Z,13.83
2023-04-06T02:35:56.842Z,14.07
2023-04-06T02:38:25.070Z,13.83
2023-04-06T02:40:53.797Z,12.87
2023-04-06T02:43:27.288Z,13.70
2023-04-06T02:46:03.583Z,13.37
2023-04-06T02:48:37.538Z,12.80
2023-04-06T02:51:05.592Z,12.77
2023-04-06T02:53:33.858Z,12.73
2023-04-06T02:56:02.082Z,12.90
2023-04-06T02:58:44.901Z,14.33
2023-04-06T03:01:13.008Z,14.57
2023-04-06T03:03:42.964Z,14.53
2023-04-06T03:06:17.616Z,13.53
2023-04-06T03:08:46.462Z,13.50
2023-04-06T03:11:14.939Z,12.57
2023-04-06T03:13:44.860Z,12.27
2023-04-06T03:16:12.632Z,13.63
2023-04-06T03:18:42.256Z,12.73
2023-04-06T03:21:10.081Z,12.53
2023-04-06T03:23:47.839Z,13.40
2023-04-06T03:26:15.763Z,12.53
2023-04-06T03:28:43.703Z,13.43
2023-04-06T03:31:11.394Z,13.40
2023-04-06T03:33:45.556Z,14.40
2023-04-06T03:36:20.977Z,13.67
2023-04-06T03:38:49.132Z,12.63
2023-04-06T03:41:16.953Z,13.37
2023-04-06T03:43:53.121Z,12.97
2023-04-06T03:46:21.047Z,13.20
2023-04-06T03:48:52.455Z,13.00
2023-04-06T03:51:22.422Z,13.37
2023-04-06T03:53:50.444Z,13.67
2023-04-06T03:56:18.161Z,13.87
2023-04-06T03:58:46.409Z,13.97
2023-04-06T04:01:14.522Z,13.67
2023-04-06T04:03:42.756Z,14.10
2023-04-06T04:06:10.473Z,14.40
2023-04-06T04:08:38.560Z,15.90
2023-04-06T04:11:06.233Z,15.93
2023-04-06T04:13:34.337Z,23.50
2023-04-06T04:16:05.507Z,30.77
2023-04-06T04:18:33.790Z,31.93
2023-04-06T04:21:01.706Z,35.93
2023-04-06T04:23:29.803Z,37.73
2023-04-06T04:25:57.577Z,38.60
2023-04-06T04:28:25.940Z,38.53
2023-04-06T04:30:55.894Z,38.90
2023-04-06T04:33:24.974Z,37.60
2023-04-06T04:35:56.427Z,33.93
2023-04-06T04:38:27.149Z,30.37
2023-04-06T04:40:57.559Z,28.57
2023-04-06T04:43:26.108Z,25.27
2023-04-06T04:45:54.435Z,24.63
2023-04-06T04:48:36.504Z,27.70
2023-04-06T04:51:07.210Z,36.90
2023-04-06T04:54:04.588Z,39.07
2023-04-06T04:56:34.206Z,36.90
2023-04-06T04:59:22.613Z,31.80
2023-04-06T05:01:57.678Z,35.33
2023-04-06T05:04:35.431Z,46.17
2023-04-06T05:07:08.993Z,49.93
2023-04-06T05:09:39.092Z,52.93
2023-04-06T05:12:08.041Z,53.30
2023-04-06T05:14:43.186Z,62.50
2023-04-06T05:17:16.231Z,61.17
2023-04-06T05:19:44.711Z,56.73
2023-04-06T05:22:17.271Z,41.40
2023-04-06T05:24:49.222Z,34.43
2023-04-06T05:27:16.935Z,33.37
2023-04-06T05:29:45.309Z,33.37
2023-04-06T05:32:13.780Z,34.77
2023-04-06T05:34:42.299Z,36.07
2023-04-06T05:37:10.107Z,40.83
2023-04-06T05:39:38.196Z,40.57
2023-04-06T05:42:07.782Z,37.30
2023-04-06T05:44:50.301Z,40.77
2023-04-06T05:47:19.350Z,43.10
2023-04-06T05:49:52.625Z,42.80
2023-04-06T05:52:32.710Z,37.30
2023-04-06T05:55:01.221Z,33.33
2023-04-06T05:57:28.966Z,32.07
2023-04-06T05:59:57.124Z,37.73
2023-04-06T06:02:31.672Z,37.77
2023-04-06T06:04:59.949Z,40.20
2023-04-06T06:07:28.042Z,84.43
2023-04-06T06:10:01.169Z,44.43
2023-04-06T06:12:33.296Z,43.57
2023-04-06T06:15:01.991Z,45.17
2023-04-06T06:17:31.659Z,62.67
2023-04-06T06:19:59.803Z,58.47
2023-04-06T06:22:29.074Z,87.27
2023-04-06T06:24:57.013Z,86.03
2023-04-06T06:27:25.543Z,73.33
2023-04-06T06:29:54.122Z,63.47
2023-04-06T06:32:22.159Z,75.20
2023-04-06T06:34:53.369Z,62.70
2023-04-06T06:37:21.359Z,48.00
2023-04-06T06:39:50.435Z,52.20
2023-04-06T06:42:18.805Z,76.20
2023-04-06T06:45:02.180Z,77.07
2023-04-06T06:47:30.181Z,79.67
2023-04-06T06:49:58.236Z,68.33
2023-04-06T06:52:25.997Z,60.00
2023-04-06T06:54:55.464Z,68.43
2023-04-06T06:57:24.785Z,58.90
2023-04-06T06:59:53.138Z,78.90
2023-04-06T07:02:22.210Z,73.80
2023-04-06T07:04:51.359Z,55.63
2023-04-06T07:07:19.286Z,49.87
2023-04-06T07:09:46.905Z,36.90
2023-04-06T07:12:14.744Z,37.17
2023-04-06T07:14:43.124Z,33.67
2023-04-06T07:17:12.337Z,29.87
2023-04-06T07:19:40.907Z,30.73
2023-04-06T07:22:08.375Z,29.83
2023-04-06T07:24:36.492Z,32.03
2023-04-06T07:27:04.013Z,33.53
2023-04-06T07:29:32.451Z,31.47
2023-04-06T07:32:00.672Z,30.90
2023-04-06T07:34:28.998Z,21.33
2023-04-06T07:36:57.871Z,22.87
2023-04-06T07:39:27.987Z,23.33
2023-04-06T07:41:56.932Z,23.60
2023-04-06T07:44:24.866Z,17.13
2023-04-06T07:46:52.511Z,11.37
2023-04-06T07:49:24.231Z,10.13
2023-04-06T07:51:52.490Z,8.50
2023-04-06T07:54:20.378Z,8.80
2023-04-06T07:56:48.143Z,7.93
2023-04-06T07:59:16.162Z,8.50
2023-04-06T08:01:43.963Z,4.97
2023-04-06T08:04:12.406Z,5.27
2023-04-06T08:06:42.279Z,5.90
2023-04-06T08:09:12.250Z,4.53
2023-04-06T08:11:48.271Z,3.83
2023-04-06T08:14:17.498Z,3.40
2023-04-06T08:16:45.123Z,4.17
2023-04-06T08:19:13.120Z,4.03
2023-04-06T08:21:41.295Z,5.07
2023-04-06T08:24:09.869Z,4.20
2023-04-06T08:26:37.958Z,4.93
2023-04-06T08:29:08.533Z,4.37
2023-04-06T08:31:37.139Z,4.53
2023-04-06T08:34:07.079Z,5.57
2023-04-06T08:36:34.908Z,4.80
2023-04-06T08:39:02.986Z,4.70
2023-04-06T08:41:30.950Z,4.33
2023-04-06T08:44:03.422Z,12.00
2023-04-06T08:46:31.845Z,11.93
2023-04-06T08:49:02.005Z,6.00
2023-04-06T08:51:31.468Z,8.83
2023-04-06T08:54:00.886Z,16.20
2023-04-06T08:56:29.779Z,19.27
2023-04-06T08:58:58.366Z,8.67
2023-04-06T09:01:30.741Z,7.27
2023-04-06T09:04:08.195Z,7.67
2023-04-06T09:06:38.031Z,7.60
2023-04-06T09:09:05.856Z,6.80
2023-04-06T09:11:47.197Z,7.00
2023-04-06T09:14:16.745Z,9.17
2023-04-06T09:16:46.694Z,17.37
2023-04-06T09:19:14.524Z,6.73
2023-04-06T09:21:42.028Z,6.97
2023-04-06T09:24:10.312Z,5.67
2023-04-06T09:26:48.756Z,7.43
2023-04-06T09:29:28.259Z,8.50
2023-04-06T09:32:07.388Z,6.50
2023-04-06T09:34:35.618Z,4.88
2023-04-06T09:37:14.148Z,6.18
2023-04-06T09:39:41.986Z,5.47
2023-04-06T09:42:10.287Z,5.25
2023-04-06T09:44:38.360Z,5.53
2023-04-06T09:47:09.386Z,5.63
2023-04-06T09:49:37.276Z,5.13
2023-04-06T09:52:07.855Z,4.57
2023-04-06T09:54:37.546Z,5.37
2023-04-06T09:57:26.204Z,5.03
2023-04-06T10:00:04.896Z,4.77
2023-04-06T10:02:56.574Z,6.17
2023-04-06T10:05:33.123Z,4.93
2023-04-06T10:08:07.487Z,6.57
2023-04-06T10:10:36.178Z,4.40
2023-04-06T10:13:07.586Z,5.57
2023-04-06T10:15:36.109Z,5.13
2023-04-06T10:18:05.615Z,5.72
2023-04-06T10:20:40.442Z,3.90
2023-04-06T10:23:10.862Z,4.28
2023-04-06T10:25:38.959Z,3.83
2023-04-06T10:28:07.650Z,3.97
2023-04-06T10:30:36.473Z,7.13
2023-04-06T10:33:14.780Z,7.80
2023-04-06T10:35:42.917Z,5.38
2023-04-06T10:38:10.885Z,4.63
2023-04-06T10:40:40.817Z,4.32
2023-04-06T10:43:14.005Z,6.55
2023-04-06T10:45:44.186Z,3.90
2023-04-06T10:48:19.801Z,3.50
2023-04-06T10:50:55.170Z,4.20
2023-04-06T10:53:29.585Z,5.65
2023-04-06T10:55:58.315Z,5.88
2023-04-06T10:58:31.327Z,3.85
2023-04-06T11:01:00.978Z,5.03
2023-04-06T11:03:28.496Z,4.43
2023-04-06T11:05:56.372Z,4.47
2023-04-06T11:08:28.963Z,4.55
2023-04-06T11:11:17.169Z,4.95
2023-04-06T11:13:48.032Z,4.28
2023-04-06T11:16:21.147Z,4.60
2023-04-06T11:18:54.265Z,3.75
2023-04-06T11:21:48.443Z,3.70
2023-04-06T11:24:26.279Z,3.28
2023-04-06T11:26:59.914Z,4.00
2023-04-06T11:29:31.077Z,3.75
2023-04-06T11:32:04.500Z,3.83
2023-04-06T11:34:39.893Z,4.00
2023-04-06T11:37:12.992Z,4.22
2023-04-06T11:39:51.932Z,4.05
2023-04-06T11:42:28.392Z,3.33
2023-04-06T11:45:00.208Z,3.20
2023-04-06T11:47:35.317Z,3.67
2023-04-06T11:50:13.977Z,3.60
2023-04-06T11:52:42.964Z,3.88
2023-04-06T11:55:14.529Z,3.30
2023-04-06T11:57:43.396Z,3.90
2023-04-06T12:00:12.187Z,3.92
2023-04-06T12:02:41.197Z,3.60
2023-04-06T12:05:10.115Z,4.97
2023-04-06T12:07:38.009Z,3.95
2023-04-06T12:10:06.550Z,2.97
2023-04-06T12:12:35.206Z,4.30
2023-04-06T12:15:02.934Z,3.10
2023-04-06T12:17:31.043Z,3.72
2023-04-06T12:20:05.361Z,3.92
2023-04-06T12:22:37.755Z,3.85
2023-04-06T12:25:08.016Z,3.47
2023-04-06T12:27:35.908Z,3.97
2023-04-06T12:30:03.685Z,3.58
2023-04-06T12:32:32.071Z,3.53
2023-04-06T12:35:00.373Z,3.70
2023-04-06T12:37:28.840Z,3.65
2023-04-06T12:39:56.480Z,3.83
2023-04-06T12:42:24.694Z,4.00
2023-04-06T12:44:52.316Z,3.53
2023-04-06T12:47:20.220Z,3.92
2023-04-06T12:49:47.779Z,3.88
2023-04-06T12:52:15.891Z,3.78
2023-04-06T12:54:44.104Z,3.35
2023-04-06T12:57:12.163Z,5.60
2023-04-06T12:59:39.850Z,3.60
2023-04-06T13:02:09.772Z,3.92
2023-04-06T13:04:39.421Z,3.75
2023-04-06T13:07:07.463Z,11.07
2023-04-06T13:09:35.307Z,5.43
2023-04-06T13:12:03.144Z,3.60
2023-04-06T13:14:30.738Z,4.10
2023-04-06T13:16:58.853Z,5.10
2023-04-06T13:19:28.509Z,4.50
2023-04-06T13:21:56.729Z,5.75
2023-04-06T13:24:42.239Z,9.60
2023-04-06T13:27:10.884Z,3.75
2023-04-06T13:31:08.686Z,4.13
2023-04-06T13:34:39.324Z,3.70
2023-04-06T13:37:36.573Z,4.90
2023-04-06T13:44:25.920Z,4.60
2023-04-06T13:50:57.346Z,5.57
2023-04-06T13:53:25.394Z,5.82
2023-04-06T13:56:00.021Z,7.18
2023-04-06T13:58:28.601Z,9.27
2023-04-06T14:01:11.382Z,6.53
2023-04-06T14:03:46.965Z,5.30
2023-04-06T14:06:31.355Z,5.85
2023-04-06T14:09:05.742Z,5.07
2023-04-06T14:11:34.574Z,5.18
2023-04-06T14:14:02.918Z,6.10
2023-04-06T14:16:32.567Z,5.05
2023-04-06T14:19:00.460Z,5.05
2023-04-06T14:21:28.272Z,4.82
2023-04-06T14:23:58.086Z,4.55
2023-04-06T14:26:27.808Z,4.25
2023-04-06T14:28:55.412Z,6.00
2023-04-06T14:31:23.937Z,4.53
2023-04-06T14:33:51.497Z,5.25
2023-04-06T14:36:19.193Z,5.03
2023-04-06T14:38:49.942Z,5.33
2023-04-06T14:41:19.037Z,5.77
2023-04-06T14:43:48.016Z,5.53
2023-04-06T14:46:19.870Z,5.93
2023-04-06T14:48:47.924Z,5.33
2023-04-06T14:51:16.176Z,7.60
2023-04-06T14:53:44.348Z,5.10
2023-04-06T14:56:12.743Z,4.73
2023-04-06T14:58:40.748Z,5.63
2023-04-06T15:01:09.710Z,4.50
2023-04-06T15:03:37.526Z,4.43
2023-04-06T15:06:07.454Z,4.43
2023-04-06T15:08:35.593Z,5.00
2023-04-06T15:11:03.711Z,4.83
2023-04-06T15:13:31.580Z,4.47
2023-04-06T15:16:01.796Z,4.07
2023-04-06T15:18:30.103Z,4.57
2023-04-06T15:20:58.225Z,4.40
2023-04-06T15:23:26.145Z,5.07
2023-04-06T15:25:54.074Z,4.47
2023-04-06T15:28:22.000Z,5.87
2023-04-06T15:30:50.418Z,5.03
2023-04-06T15:33:18.541Z,5.00
2023-04-06T15:35:46.862Z,5.57
2023-04-06T15:38:16.073Z,5.83
2023-04-06T15:40:49.675Z,24.13
2023-04-06T15:43:17.843Z,9.87
2023-04-06T15:45:45.835Z,150.20
2023-04-06T15:48:13.812Z,35.97
2023-04-06T15:50:41.807Z,71.70
2023-04-06T15:53:09.608Z,64.90
2023-04-06T15:55:38.300Z,23.10
2023-04-06T15:58:09.089Z,67.67
2023-04-06T16:00:38.464Z,15.10
2023-04-06T16:03:06.784Z,15.40
2023-04-06T16:05:44.077Z,14.97
2023-04-06T16:08:22.426Z,45.93
2023-04-06T16:10:51.135Z,28.17
2023-04-06T16:13:21.725Z,10.83
2023-04-06T16:15:53.238Z,35.23
2023-04-06T16:18:21.062Z,77.07
2023-04-06T16:20:49.196Z,74.13
2023-04-06T16:23:17.296Z,6.97
2023-04-06T16:25:45.970Z,44.27
2023-04-06T16:28:13.848Z,18.90
2023-04-06T16:30:44.773Z,26.63
2023-04-06T16:33:17.277Z,6.07
2023-04-06T16:35:49.508Z,80.80
2023-04-06T16:38:17.601Z,86.97
2023-04-06T16:40:45.915Z,112.40
2023-04-06T16:43:14.512Z,94.67
2023-04-06T16:45:44.929Z,196.47
2023-04-06T16:48:14.644Z,36.17
2023-04-06T16:50:43.230Z,38.73
2023-04-06T16:53:11.231Z,231.37
2023-04-06T16:55:43.734Z,38.57
2023-04-06T16:58:11.604Z,430.07
2023-04-06T17:00:40.445Z,523.63
2023-04-06T17:03:08.600Z,86.57
2023-04-06T17:05:37.760Z,91.23
2023-04-06T17:08:05.804Z,34.33
2023-04-06T17:10:40.975Z,42.30
2023-04-06T17:13:15.275Z,103.37
2023-04-06T17:15:43.594Z,223.47
2023-04-06T17:18:12.050Z,16.43
2023-04-06T17:20:40.689Z,23.67
2023-04-06T17:23:08.594Z,64.13
2023-04-06T17:25:36.705Z,27.40
2023-04-06T17:28:05.266Z,7.03
2023-04-06T17:30:34.544Z,5.10
2023-04-06T17:33:03.011Z,12.00
2023-04-06T17:35:31.618Z,4.90
2023-04-06T17:38:00.030Z,4.83
2023-04-06T17:40:28.403Z,5.17
2023-04-06T17:42:56.107Z,5.10
2023-04-06T17:45:24.606Z,5.40
2023-04-06T17:47:52.785Z,22.93
2023-04-06T17:50:21.485Z,23.93
2023-04-06T17:52:50.233Z,25.67
2023-04-06T17:55:21.439Z,7.87
2023-04-06T17:57:49.695Z,5.70
2023-04-06T18:00:20.296Z,13.63
2023-04-06T18:02:48.339Z,12.33
2023-04-06T18:05:17.198Z,5.63
2023-04-06T18:07:45.240Z,5.43
2023-04-06T18:10:13.780Z,7.40
2023-04-06T18:12:41.845Z,11.07
2023-04-06T18:15:10.334Z,27.93
2023-04-06T18:17:38.343Z,9.23
2023-04-06T18:20:06.934Z,24.00
2023-04-06T18:22:36.854Z,22.83
2023-04-06T18:25:05.873Z,23.20
2023-04-06T18:27:34.759Z,21.40
2023-04-06T18:30:03.911Z,30.17
2023-04-06T18:32:31.970Z,24.00
2023-04-06T18:35:01.008Z,7.93
2023-04-06T18:37:29.006Z,11.27
2023-04-06T18:39:57.193Z,6.70
2023-04-06T18:42:25.074Z,10.20
2023-04-06T18:44:53.526Z,7.73
2023-04-06T18:47:24.216Z,6.47
2023-04-06T18:49:52.988Z,6.47
2023-04-06T18:52:21.124Z,7.07
2023-04-06T18:54:50.012Z,9.53
2023-04-06T18:57:18.313Z,6.13
2023-04-06T18:59:46.901Z,8.13
2023-04-06T19:02:15.097Z,5.67
2023-04-06T19:04:43.597Z,5.30
2023-04-06T19:07:11.953Z,4.93
2023-04-06T19:09:40.636Z,6.40
2023-04-06T19:12:08.907Z,10.60
2023-04-06T19:14:37.569Z,7.07
2023-04-06T19:17:05.899Z,5.63
2023-04-06T19:19:34.564Z,7.83
2023-04-06T19:22:02.501Z,5.50
2023-04-06T19:24:30.431Z,7.13
2023-04-06T19:26:58.496Z,5.63
2023-04-06T19:29:27.352Z,5.30
2023-04-06T19:31:55.383Z,5.47
2023-04-06T19:34:24.045Z,5.70
2023-04-06T19:36:52.115Z,5.70
2023-04-06T19:39:20.250Z,6.10
2023-04-06T19:41:48.028Z,9.83
2023-04-06T19:44:16.080Z,9.17
2023-04-06T19:46:46.431Z,18.00
2023-04-06T19:49:15.461Z,9.23
2023-04-06T19:51:43.475Z,10.93
2023-04-06T19:54:11.737Z,6.63
2023-04-06T19:56:40.044Z,6.13
2023-04-06T19:59:08.665Z,5.73
2023-04-06T20:01:36.455Z,6.50
2023-04-06T20:04:04.770Z,6.00
2023-04-06T20:06:33.262Z,6.10
2023-04-06T20:09:01.332Z,6.97
2023-04-06T20:11:29.186Z,7.37
2023-04-06T20:13:57.237Z,9.77
2023-04-06T20:16:25.018Z,8.03
2023-04-06T20:18:53.003Z,8.10
2023-04-06T20:21:20.962Z,7.17
2023-04-06T20:23:49.132Z,6.40
2023-04-06T20:26:17.598Z,6.30
2023-04-06T20:28:45.990Z,6.87
2023-04-06T20:31:13.823Z,6.73
2023-04-06T20:33:41.951Z,6.43
2023-04-06T20:36:09.800Z,7.20
2023-04-06T20:38:37.926Z,8.07
2023-04-06T20:41:06.506Z,8.27
2023-04-06T20:43:34.557Z,7.73
2023-04-06T20:46:02.680Z,7.70
2023-04-06T20:48:33.636Z,7.73
2023-04-06T20:51:03.647Z,6.90
2023-04-06T20:53:31.855Z,12.07
2023-04-06T20:56:01.774Z,6.83
2023-04-06T20:58:29.648Z,7.57
2023-04-06T21:00:57.189Z,9.23
2023-04-06T21:03:25.164Z,7.50
2023-04-06T21:05:53.386Z,6.90
2023-04-06T21:08:21.302Z,8.20
2023-04-06T21:10:48.892Z,8.70
2023-04-06T21:13:16.822Z,8.70
2023-04-06T21:15:44.485Z,10.87
2023-04-06T21:18:12.576Z,7.50
2023-04-06T21:20:40.238Z,6.97
2023-04-06T21:23:08.099Z,7.93
2023-04-06T21:25:38.885Z,7.57
2023-04-06T21:28:06.866Z,7.90
2023-04-06T21:30:37.291Z,7.77
2023-04-06T21:33:05.863Z,8.97
2023-04-06T21:35:33.898Z,8.73
2023-04-06T21:38:02.017Z,8.97
2023-04-06T21:40:29.524Z,8.83
2023-04-06T21:42:57.473Z,9.13
2023-04-06T21:45:25.022Z,7.90
2023-04-06T21:47:53.041Z,9.07
2023-04-06T21:50:20.595Z,8.67
2023-04-06T21:52:48.532Z,8.07
2023-04-06T21:55:16.364Z,8.47
2023-04-06T21:57:44.706Z,8.83
2023-04-06T22:00:12.610Z,8.27
2023-04-06T22:02:43.292Z,8.83
2023-04-06T22:05:11.220Z,8.80
2023-04-06T22:07:39.153Z,8.53
2023-04-06T22:10:07.260Z,9.00
2023-04-06T22:12:35.154Z,9.37
2023-04-06T22:15:02.655Z,9.00
2023-04-06T22:17:31.349Z,8.83
2023-04-06T22:19:58.904Z,9.33
2023-04-06T22:22:26.671Z,8.40
2023-04-06T22:24:54.199Z,9.57
2023-04-06T22:27:21.997Z,10.03
2023-04-06T22:29:49.495Z,9.50
2023-04-06T22:32:17.415Z,9.13
2023-04-06T22:34:45.254Z,9.00
2023-04-06T22:37:13.142Z,9.80
2023-04-06T22:39:40.776Z,9.67
2023-04-06T22:42:08.557Z,10.57
2023-04-06T22:44:36.239Z,10.00
2023-04-06T22:47:04.108Z,10.50
2023-04-06T22:49:31.693Z,10.17
2023-04-06T22:51:59.524Z,10.73
2023-04-06T22:54:27.087Z,11.47
2023-04-06T22:56:55.057Z,12.03
2023-04-06T22:59:22.531Z,12.13
2023-04-06T23:01:50.865Z,12.97
2023-04-06T23:04:18.755Z,11.73
2023-04-06T23:06:46.654Z,12.60
2023-04-06T23:09:14.116Z,12.57
2023-04-06T23:11:41.840Z,13.30
2023-04-06T23:14:09.284Z,13.37
2023-04-06T23:16:37.085Z,12.17
2023-04-06T23:19:04.655Z,13.27
2023-04-06T23:21:33.350Z,12.83
2023-04-06T23:24:01.287Z,13.90
2023-04-06T23:26:29.122Z,13.50
2023-04-06T23:28:56.600Z,12.87
2023-04-06T23:31:24.339Z,12.97
2023-04-06T23:33:51.831Z,13.90
2023-04-06T23:36:19.671Z,14.17
2023-04-06T23:38:47.092Z,14.77
2023-04-06T23:41:16.254Z,13.20
2023-04-06T23:43:43.687Z,14.40
2023-04-06T23:46:16.795Z,14.40
2023-04-06T23:48:44.707Z,14.93
2023-04-06T23:51:12.487Z,15.50
2023-04-06T23:53:39.986Z,15.60
2023-04-06T23:56:08.071Z,16.20
2023-04-06T23:58:35.812Z,15.40
